sensor_id;sensor_type;location;lat;lon;timestamp;P1;durP1;ratioP1;P2;durP2;ratioP2
58496;SDS011;44284;51.310;16.904;2023-02-13T00:00:40;20.50;;;8.75;;
58496;SDS011;44284;51.310;16.904;2023-02-13T00:03:06;18.38;;;8.48;;
58496;SDS011;44284;51.310;16.904;2023-02-13T00:05:32;18.75;;;8.13;;
58496;SDS011;44284;51.310;16.904;2023-02-13T00:07:58;20.35;;;8.07;;
58496;SDS011;44284;51.310;16.904;2023-02-13T00:10:24;16.30;;;6.97;;
58496;SDS011;44284;51.310;16.904;2023-02-13T00:12:50;14.05;;;6.72;;
58496;SDS011;44284;51.310;16.904;2023-02-13T00:15:17;12.32;;;6.25;;
58496;SDS011;44284;51.310;16.904;2023-02-13T00:17:43;21.80;;;7.10;;
58496;SDS011;44284;51.310;16.904;2023-02-13T00:20:09;16.10;;;7.68;;
58496;SDS011;44284;51.310;16.904;2023-02-13T00:22:36;16.20;;;7.10;;
58496;SDS011;44284;51.310;16.904;2023-02-13T00:25:05;15.82;;;7.45;;
58496;SDS011;44284;51.310;16.904;2023-02-13T00:27:32;13.68;;;6.55;;
58496;SDS011;44284;51.310;16.904;2023-02-13T00:29:58;16.98;;;7.13;;
58496;SDS011;44284;51.310;16.904;2023-02-13T00:32:24;16.33;;;6.40;;
58496;SDS011;44284;51.310;16.904;2023-02-13T00:34:50;19.38;;;7.00;;
58496;SDS011;44284;51.310;16.904;2023-02-13T00:37:16;18.23;;;8.10;;
58496;SDS011;44284;51.310;16.904;2023-02-13T00:39:42;15.30;;;6.97;;
58496;SDS011;44284;51.310;16.904;2023-02-13T00:42:08;16.35;;;6.90;;
58496;SDS011;44284;51.310;16.904;2023-02-13T00:44:34;15.30;;;6.07;;
58496;SDS011;44284;51.310;16.904;2023-02-13T00:47:00;14.02;;;6.38;;
58496;SDS011;44284;51.310;16.904;2023-02-13T00:49:26;17.83;;;6.35;;
58496;SDS011;44284;51.310;16.904;2023-02-13T00:51:52;17.92;;;6.15;;
58496;SDS011;44284;51.310;16.904;2023-02-13T00:54:18;17.42;;;6.07;;
58496;SDS011;44284;51.310;16.904;2023-02-13T00:56:44;12.73;;;6.15;;
58496;SDS011;44284;51.310;16.904;2023-02-13T00:59:10;17.08;;;6.97;;
58496;SDS011;44284;51.310;16.904;2023-02-13T01:01:37;13.95;;;7.53;;
58496;SDS011;44284;51.310;16.904;2023-02-13T01:04:03;16.90;;;7.60;;
58496;SDS011;44284;51.310;16.904;2023-02-13T01:06:29;16.15;;;6.80;;
58496;SDS011;44284;51.310;16.904;2023-02-13T01:08:55;16.38;;;7.55;;
58496;SDS011;44284;51.310;16.904;2023-02-13T01:11:22;14.85;;;6.55;;
58496;SDS011;44284;51.310;16.904;2023-02-13T01:13:48;17.25;;;7.15;;
58496;SDS011;44284;51.310;16.904;2023-02-13T01:16:14;14.35;;;7.38;;
58496;SDS011;44284;51.310;16.904;2023-02-13T01:18:41;18.05;;;7.90;;
58496;SDS011;44284;51.310;16.904;2023-02-13T01:21:11;18.20;;;7.55;;
58496;SDS011;44284;51.310;16.904;2023-02-13T01:23:40;16.30;;;7.63;;
58496;SDS011;44284;51.310;16.904;2023-02-13T01:26:06;16.35;;;7.60;;
58496;SDS011;44284;51.310;16.904;2023-02-13T01:28:33;18.67;;;7.20;;
58496;SDS011;44284;51.310;16.904;2023-02-13T01:30:59;16.88;;;7.07;;
58496;SDS011;44284;51.310;16.904;2023-02-13T01:33:26;17.10;;;7.28;;
58496;SDS011;44284;51.310;16.904;2023-02-13T01:35:52;18.35;;;7.70;;
58496;SDS011;44284;51.310;16.904;2023-02-13T01:38:19;15.80;;;7.85;;
58496;SDS011;44284;51.310;16.904;2023-02-13T01:40:49;16.10;;;6.95;;
58496;SDS011;44284;51.310;16.904;2023-02-13T01:43:15;24.55;;;9.00;;
58496;SDS011;44284;51.310;16.904;2023-02-13T01:45:41;17.23;;;7.97;;
58496;SDS011;44284;51.310;16.904;2023-02-13T01:50:52;16.83;;;7.85;;
58496;SDS011;44284;51.310;16.904;2023-02-13T01:53:27;16.40;;;7.72;;
58496;SDS011;44284;51.310;16.904;2023-02-13T01:55:56;17.38;;;8.00;;
58496;SDS011;44284;51.310;16.904;2023-02-13T01:58:24;17.10;;;7.90;;
58496;SDS011;44284;51.310;16.904;2023-02-13T02:00:51;20.90;;;8.27;;
58496;SDS011;44284;51.310;16.904;2023-02-13T02:03:30;18.77;;;8.45;;
58496;SDS011;44284;51.310;16.904;2023-02-13T02:05:58;15.70;;;7.65;;
58496;SDS011;44284;51.310;16.904;2023-02-13T02:08:24;17.48;;;7.78;;
58496;SDS011;44284;51.310;16.904;2023-02-13T02:10:50;16.60;;;8.35;;
58496;SDS011;44284;51.310;16.904;2023-02-13T02:13:18;19.88;;;8.48;;
58496;SDS011;44284;51.310;16.904;2023-02-13T02:15:45;18.60;;;9.15;;
58496;SDS011;44284;51.310;16.904;2023-02-13T02:18:16;20.63;;;7.90;;
58496;SDS011;44284;51.310;16.904;2023-02-13T02:21:09;18.05;;;8.88;;
58496;SDS011;44284;51.310;16.904;2023-02-13T02:29:17;20.75;;;9.40;;
58496;SDS011;44284;51.310;16.904;2023-02-13T02:32:11;15.70;;;7.82;;
58496;SDS011;44284;51.310;16.904;2023-02-13T02:42:36;20.83;;;9.70;;
58496;SDS011;44284;51.310;16.904;2023-02-13T02:52:54;22.02;;;9.93;;
58496;SDS011;44284;51.310;16.904;2023-02-13T02:57:54;20.98;;;9.27;;
58496;SDS011;44284;51.310;16.904;2023-02-13T03:00:42;20.50;;;9.57;;
58496;SDS011;44284;51.310;16.904;2023-02-13T03:03:28;21.38;;;9.73;;
58496;SDS011;44284;51.310;16.904;2023-02-13T03:06:29;23.38;;;9.20;;
58496;SDS011;44284;51.310;16.904;2023-02-13T03:08:58;24.50;;;10.90;;
58496;SDS011;44284;51.310;16.904;2023-02-13T03:11:44;21.67;;;9.90;;
58496;SDS011;44284;51.310;16.904;2023-02-13T03:14:32;20.90;;;10.02;;
58496;SDS011;44284;51.310;16.904;2023-02-13T03:16:58;22.58;;;9.95;;
58496;SDS011;44284;51.310;16.904;2023-02-13T03:25:17;20.50;;;9.88;;
58496;SDS011;44284;51.310;16.904;2023-02-13T03:33:21;21.52;;;9.82;;
58496;SDS011;44284;51.310;16.904;2023-02-13T03:35:52;22.52;;;10.18;;
58496;SDS011;44284;51.310;16.904;2023-02-13T03:38:54;24.55;;;10.82;;
58496;SDS011;44284;51.310;16.904;2023-02-13T03:41:24;21.70;;;10.25;;
58496;SDS011;44284;51.310;16.904;2023-02-13T03:44:03;21.35;;;10.10;;
58496;SDS011;44284;51.310;16.904;2023-02-13T03:46:41;19.98;;;9.32;;
58496;SDS011;44284;51.310;16.904;2023-02-13T03:49:09;20.05;;;9.48;;
58496;SDS011;44284;51.310;16.904;2023-02-13T03:51:56;20.92;;;9.80;;
58496;SDS011;44284;51.310;16.904;2023-02-13T03:57:27;20.05;;;8.90;;
58496;SDS011;44284;51.310;16.904;2023-02-13T04:00:14;23.77;;;8.88;;
58496;SDS011;44284;51.310;16.904;2023-02-13T04:02:47;27.75;;;10.27;;
58496;SDS011;44284;51.310;16.904;2023-02-13T04:05:17;19.20;;;9.68;;
58496;SDS011;44284;51.310;16.904;2023-02-13T04:07:45;20.38;;;10.30;;
58496;SDS011;44284;51.310;16.904;2023-02-13T04:10:12;24.27;;;10.57;;
58496;SDS011;44284;51.310;16.904;2023-02-13T04:12:47;24.30;;;10.13;;
58496;SDS011;44284;51.310;16.904;2023-02-13T04:15:17;23.90;;;11.25;;
58496;SDS011;44284;51.310;16.904;2023-02-13T04:17:46;25.30;;;10.93;;
58496;SDS011;44284;51.310;16.904;2023-02-13T04:20:13;22.20;;;9.93;;
58496;SDS011;44284;51.310;16.904;2023-02-13T04:22:46;20.40;;;10.30;;
58496;SDS011;44284;51.310;16.904;2023-02-13T04:25:14;18.38;;;9.45;;
58496;SDS011;44284;51.310;16.904;2023-02-13T04:27:41;19.63;;;8.55;;
58496;SDS011;44284;51.310;16.904;2023-02-13T04:30:08;28.02;;;12.35;;
58496;SDS011;44284;51.310;16.904;2023-02-13T04:32:34;22.02;;;9.13;;
58496;SDS011;44284;51.310;16.904;2023-02-13T04:35:00;22.63;;;9.15;;
58496;SDS011;44284;51.310;16.904;2023-02-13T04:37:26;21.30;;;10.23;;
58496;SDS011;44284;51.310;16.904;2023-02-13T04:39:52;24.13;;;9.85;;
58496;SDS011;44284;51.310;16.904;2023-02-13T04:42:18;20.90;;;9.52;;
58496;SDS011;44284;51.310;16.904;2023-02-13T04:44:45;21.30;;;10.07;;
58496;SDS011;44284;51.310;16.904;2023-02-13T04:47:11;21.92;;;10.68;;
58496;SDS011;44284;51.310;16.904;2023-02-13T04:49:38;22.85;;;9.80;;
58496;SDS011;44284;51.310;16.904;2023-02-13T04:52:04;20.08;;;8.90;;
58496;SDS011;44284;51.310;16.904;2023-02-13T04:54:30;19.60;;;9.07;;
58496;SDS011;44284;51.310;16.904;2023-02-13T04:56:56;18.40;;;8.32;;
58496;SDS011;44284;51.310;16.904;2023-02-13T04:59:22;21.83;;;9.73;;
58496;SDS011;44284;51.310;16.904;2023-02-13T05:01:48;19.88;;;9.23;;
58496;SDS011;44284;51.310;16.904;2023-02-13T05:04:14;22.92;;;10.45;;
58496;SDS011;44284;51.310;16.904;2023-02-13T05:06:41;21.02;;;10.02;;
58496;SDS011;44284;51.310;16.904;2023-02-13T05:09:08;22.75;;;10.98;;
58496;SDS011;44284;51.310;16.904;2023-02-13T05:11:34;24.33;;;10.57;;
58496;SDS011;44284;51.310;16.904;2023-02-13T05:14:00;26.80;;;11.88;;
58496;SDS011;44284;51.310;16.904;2023-02-13T05:16:26;35.00;;;14.07;;
58496;SDS011;44284;51.310;16.904;2023-02-13T05:18:52;31.45;;;13.25;;
58496;SDS011;44284;51.310;16.904;2023-02-13T05:21:19;28.75;;;11.90;;
58496;SDS011;44284;51.310;16.904;2023-02-13T05:24:04;37.33;;;15.00;;
58496;SDS011;44284;51.310;16.904;2023-02-13T05:26:30;27.08;;;14.57;;
58496;SDS011;44284;51.310;16.904;2023-02-13T05:28:56;39.58;;;14.68;;
58496;SDS011;44284;51.310;16.904;2023-02-13T05:31:41;42.40;;;15.05;;
58496;SDS011;44284;51.310;16.904;2023-02-13T05:34:07;34.75;;;14.65;;
58496;SDS011;44284;51.310;16.904;2023-02-13T05:36:33;31.08;;;13.25;;
58496;SDS011;44284;51.310;16.904;2023-02-13T05:38:59;28.80;;;12.27;;
58496;SDS011;44284;51.310;16.904;2023-02-13T05:41:25;30.83;;;13.90;;
58496;SDS011;44284;51.310;16.904;2023-02-13T05:43:51;35.17;;;13.68;;
58496;SDS011;44284;51.310;16.904;2023-02-13T05:46:18;39.20;;;15.70;;
58496;SDS011;44284;51.310;16.904;2023-02-13T05:48:44;32.70;;;14.40;;
58496;SDS011;44284;51.310;16.904;2023-02-13T05:51:10;34.70;;;14.05;;
58496;SDS011;44284;51.310;16.904;2023-02-13T05:53:36;38.63;;;13.88;;
58496;SDS011;44284;51.310;16.904;2023-02-13T05:56:03;35.42;;;13.15;;
58496;SDS011;44284;51.310;16.904;2023-02-13T05:58:29;33.45;;;13.05;;
58496;SDS011;44284;51.310;16.904;2023-02-13T06:00:56;36.08;;;13.52;;
58496;SDS011;44284;51.310;16.904;2023-02-13T06:03:23;38.53;;;12.25;;
58496;SDS011;44284;51.310;16.904;2023-02-13T06:05:49;32.40;;;13.35;;
58496;SDS011;44284;51.310;16.904;2023-02-13T06:08:15;45.67;;;16.52;;
58496;SDS011;44284;51.310;16.904;2023-02-13T06:10:41;45.13;;;17.05;;
58496;SDS011;44284;51.310;16.904;2023-02-13T06:13:07;35.15;;;14.27;;
58496;SDS011;44284;51.310;16.904;2023-02-13T06:15:33;32.60;;;14.05;;
58496;SDS011;44284;51.310;16.904;2023-02-13T06:17:59;42.78;;;14.95;;
58496;SDS011;44284;51.310;16.904;2023-02-13T06:20:25;36.47;;;14.55;;
58496;SDS011;44284;51.310;16.904;2023-02-13T06:22:51;44.80;;;15.05;;
58496;SDS011;44284;51.310;16.904;2023-02-13T06:25:17;38.80;;;14.20;;
58496;SDS011;44284;51.310;16.904;2023-02-13T06:27:44;40.80;;;13.27;;
58496;SDS011;44284;51.310;16.904;2023-02-13T06:30:10;39.42;;;14.95;;
58496;SDS011;44284;51.310;16.904;2023-02-13T06:32:36;36.88;;;13.20;;
58496;SDS011;44284;51.310;16.904;2023-02-13T06:35:02;44.28;;;16.48;;
58496;SDS011;44284;51.310;16.904;2023-02-13T06:37:28;44.30;;;16.38;;
58496;SDS011;44284;51.310;16.904;2023-02-13T06:39:54;35.65;;;14.32;;
58496;SDS011;44284;51.310;16.904;2023-02-13T06:42:20;48.08;;;16.83;;
58496;SDS011;44284;51.310;16.904;2023-02-13T06:44:46;91.65;;;42.65;;
58496;SDS011;44284;51.310;16.904;2023-02-13T06:47:12;64.70;;;28.92;;
58496;SDS011;44284;51.310;16.904;2023-02-13T06:49:38;64.90;;;26.20;;
58496;SDS011;44284;51.310;16.904;2023-02-13T06:52:04;58.65;;;23.85;;
58496;SDS011;44284;51.310;16.904;2023-02-13T06:54:30;41.78;;;15.85;;
58496;SDS011;44284;51.310;16.904;2023-02-13T06:56:56;56.60;;;18.05;;
58496;SDS011;44284;51.310;16.904;2023-02-13T06:59:22;49.80;;;17.92;;
58496;SDS011;44284;51.310;16.904;2023-02-13T07:01:48;39.20;;;14.88;;
58496;SDS011;44284;51.310;16.904;2023-02-13T07:04:14;43.78;;;16.13;;
58496;SDS011;44284;51.310;16.904;2023-02-13T07:06:41;50.22;;;17.88;;
58496;SDS011;44284;51.310;16.904;2023-02-13T07:09:07;50.20;;;17.73;;
58496;SDS011;44284;51.310;16.904;2023-02-13T07:11:33;70.88;;;21.38;;
58496;SDS011;44284;51.310;16.904;2023-02-13T07:13:59;47.58;;;18.98;;
58496;SDS011;44284;51.310;16.904;2023-02-13T07:16:25;44.35;;;17.90;;
58496;SDS011;44284;51.310;16.904;2023-02-13T07:18:51;38.45;;;14.82;;
58496;SDS011;44284;51.310;16.904;2023-02-13T07:21:17;46.22;;;13.05;;
58496;SDS011;44284;51.310;16.904;2023-02-13T07:23:43;121.63;;;54.35;;
58496;SDS011;44284;51.310;16.904;2023-02-13T07:26:09;60.67;;;20.65;;
58496;SDS011;44284;51.310;16.904;2023-02-13T07:28:35;53.72;;;20.48;;
58496;SDS011;44284;51.310;16.904;2023-02-13T07:31:04;58.40;;;24.30;;
58496;SDS011;44284;51.310;16.904;2023-02-13T07:33:31;44.78;;;16.67;;
58496;SDS011;44284;51.310;16.904;2023-02-13T07:35:57;47.97;;;16.10;;
58496;SDS011;44284;51.310;16.904;2023-02-13T07:38:23;42.25;;;16.73;;
58496;SDS011;44284;51.310;16.904;2023-02-13T07:40:49;44.75;;;18.33;;
58496;SDS011;44284;51.310;16.904;2023-02-13T07:43:15;35.45;;;13.75;;
58496;SDS011;44284;51.310;16.904;2023-02-13T07:45:42;48.97;;;18.67;;
58496;SDS011;44284;51.310;16.904;2023-02-13T07:48:08;85.30;;;34.05;;
58496;SDS011;44284;51.310;16.904;2023-02-13T07:50:34;46.75;;;17.60;;
58496;SDS011;44284;51.310;16.904;2023-02-13T07:53:00;42.10;;;16.17;;
58496;SDS011;44284;51.310;16.904;2023-02-13T07:55:27;39.55;;;14.52;;
58496;SDS011;44284;51.310;16.904;2023-02-13T07:57:53;37.65;;;15.60;;
58496;SDS011;44284;51.310;16.904;2023-02-13T08:00:20;46.28;;;17.75;;
58496;SDS011;44284;51.310;16.904;2023-02-13T08:02:46;32.65;;;13.13;;
58496;SDS011;44284;51.310;16.904;2023-02-13T08:05:12;47.35;;;16.65;;
58496;SDS011;44284;51.310;16.904;2023-02-13T08:07:39;45.47;;;17.63;;
58496;SDS011;44284;51.310;16.904;2023-02-13T08:10:06;38.10;;;16.67;;
58496;SDS011;44284;51.310;16.904;2023-02-13T08:12:51;39.08;;;17.55;;
58496;SDS011;44284;51.310;16.904;2023-02-13T08:15:18;33.15;;;13.23;;
58496;SDS011;44284;51.310;16.904;2023-02-13T08:17:44;35.55;;;15.85;;
58496;SDS011;44284;51.310;16.904;2023-02-13T08:20:10;38.58;;;16.55;;
58496;SDS011;44284;51.310;16.904;2023-02-13T08:22:36;34.92;;;13.60;;
58496;SDS011;44284;51.310;16.904;2023-02-13T08:25:03;31.85;;;12.48;;
58496;SDS011;44284;51.310;16.904;2023-02-13T08:27:29;40.72;;;12.77;;
58496;SDS011;44284;51.310;16.904;2023-02-13T08:29:55;36.25;;;14.52;;
58496;SDS011;44284;51.310;16.904;2023-02-13T08:32:22;26.33;;;11.50;;
58496;SDS011;44284;51.310;16.904;2023-02-13T08:34:48;27.02;;;11.20;;
58496;SDS011;44284;51.310;16.904;2023-02-13T08:37:14;25.80;;;10.80;;
58496;SDS011;44284;51.310;16.904;2023-02-13T08:39:40;24.90;;;10.93;;
58496;SDS011;44284;51.310;16.904;2023-02-13T08:42:06;26.00;;;13.02;;
58496;SDS011;44284;51.310;16.904;2023-02-13T08:44:32;20.38;;;8.88;;
58496;SDS011;44284;51.310;16.904;2023-02-13T08:46:58;18.85;;;8.48;;
58496;SDS011;44284;51.310;16.904;2023-02-13T08:49:31;18.02;;;7.15;;
58496;SDS011;44284;51.310;16.904;2023-02-13T08:51:57;12.40;;;5.85;;
58496;SDS011;44284;51.310;16.904;2023-02-13T08:54:23;12.75;;;5.72;;
58496;SDS011;44284;51.310;16.904;2023-02-13T08:56:49;31.70;;;20.40;;
58496;SDS011;44284;51.310;16.904;2023-02-13T08:59:15;25.00;;;18.52;;
58496;SDS011;44284;51.310;16.904;2023-02-13T09:01:41;14.93;;;9.52;;
58496;SDS011;44284;51.310;16.904;2023-02-13T09:04:07;11.40;;;5.63;;
58496;SDS011;44284;51.310;16.904;2023-02-13T09:06:33;10.90;;;6.50;;
58496;SDS011;44284;51.310;16.904;2023-02-13T09:08:59;17.67;;;8.77;;
58496;SDS011;44284;51.310;16.904;2023-02-13T09:11:25;14.15;;;6.88;;
58496;SDS011;44284;51.310;16.904;2023-02-13T09:13:52;22.60;;;9.55;;
58496;SDS011;44284;51.310;16.904;2023-02-13T09:16:18;13.52;;;6.65;;
58496;SDS011;44284;51.310;16.904;2023-02-13T09:18:50;12.98;;;5.97;;
58496;SDS011;44284;51.310;16.904;2023-02-13T09:21:17;11.63;;;5.15;;
58496;SDS011;44284;51.310;16.904;2023-02-13T09:23:43;12.15;;;5.18;;
58496;SDS011;44284;51.310;16.904;2023-02-13T09:26:11;10.82;;;5.43;;
58496;SDS011;44284;51.310;16.904;2023-02-13T09:28:37;11.90;;;6.13;;
58496;SDS011;44284;51.310;16.904;2023-02-13T09:31:05;15.05;;;5.47;;
58496;SDS011;44284;51.310;16.904;2023-02-13T09:33:31;21.88;;;9.35;;
58496;SDS011;44284;51.310;16.904;2023-02-13T09:35:57;21.75;;;9.40;;
58496;SDS011;44284;51.310;16.904;2023-02-13T09:38:23;38.35;;;16.98;;
58496;SDS011;44284;51.310;16.904;2023-02-13T09:40:51;20.50;;;9.65;;
58496;SDS011;44284;51.310;16.904;2023-02-13T09:43:28;10.13;;;5.70;;
58496;SDS011;44284;51.310;16.904;2023-02-13T09:45:57;9.75;;;5.13;;
58496;SDS011;44284;51.310;16.904;2023-02-13T09:48:29;11.68;;;5.93;;
58496;SDS011;44284;51.310;16.904;2023-02-13T09:50:57;11.65;;;6.57;;
58496;SDS011;44284;51.310;16.904;2023-02-13T09:53:23;17.88;;;7.07;;
58496;SDS011;44284;51.310;16.904;2023-02-13T09:58:40;13.38;;;6.18;;
58496;SDS011;44284;51.310;16.904;2023-02-13T10:01:41;11.85;;;6.32;;
58496;SDS011;44284;51.310;16.904;2023-02-13T10:06:29;11.77;;;5.93;;
58496;SDS011;44284;51.310;16.904;2023-02-13T10:09:13;11.80;;;5.88;;
58496;SDS011;44284;51.310;16.904;2023-02-13T10:14:20;12.25;;;6.40;;
58496;SDS011;44284;51.310;16.904;2023-02-13T10:16:51;10.50;;;5.82;;
58496;SDS011;44284;51.310;16.904;2023-02-13T10:24:41;14.40;;;7.35;;
58496;SDS011;44284;51.310;16.904;2023-02-13T10:27:24;9.18;;;5.05;;
58496;SDS011;44284;51.310;16.904;2023-02-13T10:33:15;11.18;;;5.80;;
58496;SDS011;44284;51.310;16.904;2023-02-13T10:35:21;10.85;;;6.20;;
58496;SDS011;44284;51.310;16.904;2023-02-13T10:37:48;14.70;;;6.65;;
58496;SDS011;44284;51.310;16.904;2023-02-13T10:40:17;12.18;;;5.25;;
58496;SDS011;44284;51.310;16.904;2023-02-13T10:42:44;11.48;;;6.07;;
58496;SDS011;44284;51.310;16.904;2023-02-13T10:47:54;11.65;;;6.05;;
58496;SDS011;44284;51.310;16.904;2023-02-13T10:50:42;11.02;;;5.07;;
58496;SDS011;44284;51.310;16.904;2023-02-13T11:03:43;9.02;;;5.18;;
58496;SDS011;44284;51.310;16.904;2023-02-13T11:06:14;8.52;;;4.85;;
58496;SDS011;44284;51.310;16.904;2023-02-13T11:08:41;11.77;;;4.93;;
58496;SDS011;44284;51.310;16.904;2023-02-13T11:16:42;9.63;;;4.90;;
58496;SDS011;44284;51.310;16.904;2023-02-13T11:19:19;9.98;;;4.78;;
58496;SDS011;44284;51.310;16.904;2023-02-13T11:21:46;10.00;;;4.75;;
58496;SDS011;44284;51.310;16.904;2023-02-13T11:24:31;10.98;;;6.00;;
58496;SDS011;44284;51.310;16.904;2023-02-13T11:26:59;14.97;;;8.40;;
58496;SDS011;44284;51.310;16.904;2023-02-13T11:29:29;9.82;;;5.20;;
58496;SDS011;44284;51.310;16.904;2023-02-13T11:34:34;8.25;;;4.47;;
58496;SDS011;44284;51.310;16.904;2023-02-13T11:37:11;8.38;;;4.47;;
58496;SDS011;44284;51.310;16.904;2023-02-13T11:39:39;11.32;;;4.75;;
58496;SDS011;44284;51.310;16.904;2023-02-13T11:42:40;7.28;;;4.15;;
58496;SDS011;44284;51.310;16.904;2023-02-13T11:45:19;9.25;;;4.22;;
58496;SDS011;44284;51.310;16.904;2023-02-13T11:47:43;8.10;;;4.20;;
58496;SDS011;44284;51.310;16.904;2023-02-13T11:50:31;9.43;;;4.20;;
58496;SDS011;44284;51.310;16.904;2023-02-13T11:53:00;10.45;;;5.28;;
58496;SDS011;44284;51.310;16.904;2023-02-13T11:55:29;14.00;;;6.50;;
58496;SDS011;44284;51.310;16.904;2023-02-13T11:58:28;12.82;;;6.68;;
58496;SDS011;44284;51.310;16.904;2023-02-13T12:00:47;12.45;;;6.88;;
58496;SDS011;44284;51.310;16.904;2023-02-13T12:08:31;12.30;;;6.90;;
58496;SDS011;44284;51.310;16.904;2023-02-13T12:10:58;16.10;;;7.63;;
58496;SDS011;44284;51.310;16.904;2023-02-13T12:13:34;10.05;;;5.57;;
58496;SDS011;44284;51.310;16.904;2023-02-13T12:16:05;9.25;;;4.82;;
58496;SDS011;44284;51.310;16.904;2023-02-13T12:18:45;9.52;;;5.10;;
58496;SDS011;44284;51.310;16.904;2023-02-13T12:26:19;16.38;;;7.72;;
58496;SDS011;44284;51.310;16.904;2023-02-13T12:39:02;17.85;;;7.82;;
58496;SDS011;44284;51.310;16.904;2023-02-13T12:41:38;12.85;;;6.38;;
58496;SDS011;44284;51.310;16.904;2023-02-13T12:54:32;14.02;;;6.00;;
58496;SDS011;44284;51.310;16.904;2023-02-13T12:59:33;17.75;;;8.45;;
58496;SDS011;44284;51.310;16.904;2023-02-13T13:02:06;15.65;;;7.95;;
58496;SDS011;44284;51.310;16.904;2023-02-13T13:04:46;13.98;;;8.25;;
58496;SDS011;44284;51.310;16.904;2023-02-13T13:12:15;14.57;;;6.57;;
58496;SDS011;44284;51.310;16.904;2023-02-13T13:14:52;11.40;;;6.07;;
58496;SDS011;44284;51.310;16.904;2023-02-13T13:22:31;9.65;;;4.75;;
58496;SDS011;44284;51.310;16.904;2023-02-13T13:27:36;9.50;;;5.15;;
58496;SDS011;44284;51.310;16.904;2023-02-13T13:30:05;11.15;;;5.40;;
58496;SDS011;44284;51.310;16.904;2023-02-13T13:32:37;9.77;;;5.63;;
58496;SDS011;44284;51.310;16.904;2023-02-13T13:35:04;11.27;;;5.90;;
58496;SDS011;44284;51.310;16.904;2023-02-13T13:37:39;10.32;;;5.45;;
58496;SDS011;44284;51.310;16.904;2023-02-13T13:48:49;10.48;;;5.88;;
58496;SDS011;44284;51.310;16.904;2023-02-13T13:50:53;10.43;;;5.60;;
58496;SDS011;44284;51.310;16.904;2023-02-13T13:53:20;11.63;;;6.60;;
58496;SDS011;44284;51.310;16.904;2023-02-13T14:01:33;11.70;;;6.60;;
58496;SDS011;44284;51.310;16.904;2023-02-13T14:03:35;11.80;;;6.05;;
58496;SDS011;44284;51.310;16.904;2023-02-13T14:06:03;14.18;;;6.95;;
58496;SDS011;44284;51.310;16.904;2023-02-13T14:13:37;10.90;;;6.07;;
58496;SDS011;44284;51.310;16.904;2023-02-13T14:16:04;11.20;;;6.68;;
58496;SDS011;44284;51.310;16.904;2023-02-13T14:18:31;11.07;;;6.45;;
58496;SDS011;44284;51.310;16.904;2023-02-13T14:21:01;10.45;;;5.63;;
58496;SDS011;44284;51.310;16.904;2023-02-13T14:24:00;12.77;;;6.22;;
58496;SDS011;44284;51.310;16.904;2023-02-13T14:28:55;14.60;;;8.30;;
58496;SDS011;44284;51.310;16.904;2023-02-13T14:33:54;19.92;;;10.63;;
58496;SDS011;44284;51.310;16.904;2023-02-13T14:36:22;18.13;;;11.32;;
58496;SDS011;44284;51.310;16.904;2023-02-13T14:38:56;17.08;;;8.18;;
58496;SDS011;44284;51.310;16.904;2023-02-13T14:41:39;14.75;;;8.48;;
58496;SDS011;44284;51.310;16.904;2023-02-13T14:44:09;22.85;;;10.63;;
58496;SDS011;44284;51.310;16.904;2023-02-13T14:46:40;23.00;;;10.30;;
58496;SDS011;44284;51.310;16.904;2023-02-13T14:49:16;17.55;;;8.85;;
58496;SDS011;44284;51.310;16.904;2023-02-13T14:51:45;14.80;;;7.65;;
58496;SDS011;44284;51.310;16.904;2023-02-13T14:57:19;19.02;;;9.30;;
58496;SDS011;44284;51.310;16.904;2023-02-13T14:59:48;15.00;;;7.30;;
58496;SDS011;44284;51.310;16.904;2023-02-13T15:02:20;13.75;;;7.63;;
58496;SDS011;44284;51.310;16.904;2023-02-13T15:04:53;14.02;;;7.72;;
58496;SDS011;44284;51.310;16.904;2023-02-13T15:07:21;22.23;;;10.05;;
58496;SDS011;44284;51.310;16.904;2023-02-13T15:09:57;17.02;;;8.50;;
58496;SDS011;44284;51.310;16.904;2023-02-13T15:14:50;15.65;;;9.18;;
58496;SDS011;44284;51.310;16.904;2023-02-13T15:19:43;16.40;;;9.15;;
58496;SDS011;44284;51.310;16.904;2023-02-13T15:22:16;15.75;;;8.50;;
58496;SDS011;44284;51.310;16.904;2023-02-13T15:24:47;13.77;;;6.95;;
58496;SDS011;44284;51.310;16.904;2023-02-13T15:27:20;12.93;;;7.55;;
58496;SDS011;44284;51.310;16.904;2023-02-13T15:29:57;14.55;;;7.90;;
58496;SDS011;44284;51.310;16.904;2023-02-13T15:32:28;15.90;;;9.80;;
58496;SDS011;44284;51.310;16.904;2023-02-13T15:34:54;16.40;;;8.05;;
58496;SDS011;44284;51.310;16.904;2023-02-13T15:37:24;16.67;;;8.57;;
58496;SDS011;44284;51.310;16.904;2023-02-13T15:39:51;15.75;;;8.02;;
58496;SDS011;44284;51.310;16.904;2023-02-13T15:42:18;21.42;;;11.13;;
58496;SDS011;44284;51.310;16.904;2023-02-13T15:44:44;20.58;;;10.10;;
58496;SDS011;44284;51.310;16.904;2023-02-13T15:47:22;21.23;;;9.05;;
58496;SDS011;44284;51.310;16.904;2023-02-13T15:49:51;16.35;;;8.90;;
58496;SDS011;44284;51.310;16.904;2023-02-13T15:52:19;20.55;;;11.55;;
58496;SDS011;44284;51.310;16.904;2023-02-13T15:54:50;18.67;;;11.05;;
58496;SDS011;44284;51.310;16.904;2023-02-13T15:57:17;36.20;;;22.55;;
58496;SDS011;44284;51.310;16.904;2023-02-13T15:59:43;25.45;;;13.02;;
58496;SDS011;44284;51.310;16.904;2023-02-13T16:02:20;41.53;;;18.15;;
58496;SDS011;44284;51.310;16.904;2023-02-13T16:04:48;47.08;;;21.50;;
58496;SDS011;44284;51.310;16.904;2023-02-13T16:07:15;38.78;;;19.42;;
58496;SDS011;44284;51.310;16.904;2023-02-13T16:09:41;35.38;;;17.63;;
58496;SDS011;44284;51.310;16.904;2023-02-13T16:14:43;33.25;;;15.98;;
58496;SDS011;44284;51.310;16.904;2023-02-13T16:17:15;29.98;;;14.15;;
58496;SDS011;44284;51.310;16.904;2023-02-13T16:19:53;34.90;;;14.93;;
58496;SDS011;44284;51.310;16.904;2023-02-13T16:24:47;51.25;;;23.25;;
58496;SDS011;44284;51.310;16.904;2023-02-13T16:27:15;45.47;;;20.00;;
58496;SDS011;44284;51.310;16.904;2023-02-13T16:29:47;39.75;;;18.40;;
58496;SDS011;44284;51.310;16.904;2023-02-13T16:32:25;36.42;;;18.13;;
58496;SDS011;44284;51.310;16.904;2023-02-13T16:34:51;75.88;;;41.70;;
58496;SDS011;44284;51.310;16.904;2023-02-13T16:37:28;90.50;;;47.35;;
58496;SDS011;44284;51.310;16.904;2023-02-13T16:39:55;72.63;;;39.95;;
58496;SDS011;44284;51.310;16.904;2023-02-13T16:42:21;62.00;;;33.95;;
58496;SDS011;44284;51.310;16.904;2023-02-13T16:44:48;43.35;;;23.13;;
58496;SDS011;44284;51.310;16.904;2023-02-13T16:47:32;42.55;;;20.40;;
58496;SDS011;44284;51.310;16.904;2023-02-13T16:49:58;61.67;;;31.27;;
58496;SDS011;44284;51.310;16.904;2023-02-13T16:52:26;51.72;;;28.33;;
58496;SDS011;44284;51.310;16.904;2023-02-13T16:54:58;41.78;;;23.38;;
58496;SDS011;44284;51.310;16.904;2023-02-13T16:57:26;43.38;;;26.75;;
58496;SDS011;44284;51.310;16.904;2023-02-13T17:02:37;45.80;;;21.83;;
58496;SDS011;44284;51.310;16.904;2023-02-13T17:07:40;33.97;;;17.73;;
58496;SDS011;44284;51.310;16.904;2023-02-13T17:12:57;42.35;;;21.25;;
58496;SDS011;44284;51.310;16.904;2023-02-13T17:15:26;53.28;;;23.48;;
58496;SDS011;44284;51.310;16.904;2023-02-13T17:17:52;45.95;;;20.92;;